Time;durP1;ratioP1;P1;durP2;ratioP2;P2;SDS_P1;SDS_P2;PMS_P1;PMS_P2;Temp;Humidity;BMP_temperature;BMP_pressure;BME280_temperature;BME280_humidity;BME280_pressure;Samples;Min_cycle;Max_cycle;Signal;HPM_P1;HPM_P2
2021/09/12 00:00:03;;;;;;;1.53;1.00;;;19.40;98.20;;;;;;4976711;28;20462;-79
2021/09/12 00:02:29;;;;;;;1.50;0.93;;;19.40;98.20;;;;;;4968511;28;20477;-79
2021/09/12 00:04:56;;;;;;;1.50;0.90;;;19.40;98.20;;;;;;4971585;28;20509;-80
2021/09/12 00:07:23;;;;;;;1.50;0.90;;;19.40;98.20;;;;;;4969974;28;20477;-79
2021/09/12 00:09:50;;;;;;;1.53;0.90;;;19.40;98.20;;;;;;4977701;28;20470;-79
2021/09/12 00:12:17;;;;;;;1.50;0.93;;;19.40;98.20;;;;;;4965532;28;20493;-80
2021/09/12 00:14:44;;;;;;;1.50;0.90;;;19.40;98.20;;;;;;4972028;28;20816;-80
2021/09/12 00:17:12;;;;;;;1.50;0.90;;;19.40;98.20;;;;;;4951999;28;20573;-80
2021/09/12 00:19:39;;;;;;;1.50;0.90;;;19.40;98.20;;;;;;4977755;28;20973;-79
2021/09/12 00:22:06;;;;;;;1.53;1.00;;;19.40;98.20;;;;;;4953668;28;20490;-79
2021/09/12 00:24:33;;;;;;;1.50;0.90;;;19.40;98.20;;;;;;4967680;28;20489;-80
2021/09/12 00:27:00;;;;;;;1.50;0.90;;;19.40;98.20;;;;;;4960719;28;20478;-80
2021/09/12 00:29:26;;;;;;;1.53;0.90;;;19.50;98.20;;;;;;4974208;28;20469;-80
2021/09/12 00:31:53;;;;;;;1.50;1.00;;;19.40;98.20;;;;;;4968166;28;20505;-80
2021/09/12 00:34:21;;;;;;;1.50;0.90;;;19.40;98.20;;;;;;4977990;28;20485;-80
2021/09/12 00:36:48;;;;;;;1.50;1.00;;;19.50;98.20;;;;;;4961537;28;20494;-80
2021/09/12 00:39:15;;;;;;;1.50;0.90;;;19.40;98.20;;;;;;4972635;28;20469;-79
2021/09/12 00:41:44;;;;;;;1.50;0.90;;;19.40;98.20;;;;;;4970652;28;20486;-79
2021/09/12 00:44:12;;;;;;;1.53;1.00;;;19.40;98.20;;;;;;4975379;28;20486;-80
2021/09/12 00:46:40;;;;;;;1.50;0.90;;;19.40;98.20;;;;;;4960418;28;20517;-79
2021/09/12 00:49:07;;;;;;;1.50;1.00;;;19.40;98.20;;;;;;4970666;28;20650;-79
2021/09/12 00:51:35;;;;;;;1.53;1.00;;;19.40;98.20;;;;;;4964751;28;20485;-79
2021/09/12 00:54:03;;;;;;;1.50;1.00;;;19.40;98.20;;;;;;4973681;28;20482;-79
2021/09/12 00:56:33;;;;;;;1.50;0.90;;;19.30;98.20;;;;;;4965913;28;20585;-80
2021/09/12 00:59:02;;;;;;;1.50;1.00;;;19.30;98.20;;;;;;4974613;28;20466;-80
2021/09/12 01:01:30;;;;;;;1.50;0.90;;;19.30;98.20;;;;;;4961929;28;20483;-80
2021/09/12 01:03:57;;;;;;;1.50;0.90;;;19.30;98.20;;;;;;4968154;28;20493;-80
2021/09/12 01:06:23;;;;;;;1.50;0.90;;;19.20;98.20;;;;;;4969879;28;20492;-80
2021/09/12 01:08:52;;;;;;;1.50;0.90;;;19.20;98.20;;;;;;4979808;28;20469;-80
2021/09/12 01:11:19;;;;;;;1.50;0.90;;;19.20;98.20;;;;;;4975460;28;21020;-80
2021/09/12 01:13:45;;;;;;;1.50;0.90;;;19.20;98.20;;;;;;4980603;28;20457;-80
2021/09/12 01:16:14;;;;;;;1.53;0.93;;;19.10;98.20;;;;;;4970199;28;20561;-79
2021/09/12 01:18:41;;;;;;;1.53;0.90;;;19.10;98.20;;;;;;4977043;28;20470;-79
2021/09/12 01:21:10;;;;;;;1.60;1.00;;;19.10;98.20;;;;;;4972308;28;20588;-79
2021/09/12 01:23:36;;;;;;;1.50;0.90;;;19.10;98.20;;;;;;4976533;28;20465;-80
2021/09/12 01:26:05;;;;;;;1.50;0.90;;;19.10;98.20;;;;;;4970955;28;20489;-80
2021/09/12 01:28:32;;;;;;;1.50;0.90;;;19.10;98.20;;;;;;4982120;28;21206;-79
2021/09/12 01:30:59;;;;;;;1.50;0.90;;;19.10;98.20;;;;;;4967989;28;20466;-80
2021/09/12 01:33:26;;;;;;;1.50;0.97;;;19.10;98.20;;;;;;4980779;28;20504;-80
2021/09/12 01:35:53;;;;;;;1.50;0.90;;;19.10;98.20;;;;;;4959686;28;20493;-80
2021/09/12 01:38:20;;;;;;;1.50;0.90;;;19.10;98.20;;;;;;4978154;28;20466;-80
2021/09/12 01:40:46;;;;;;;1.50;0.90;;;19.00;98.20;;;;;;4976861;28;20874;-80
2021/09/12 01:43:14;;;;;;;1.53;0.93;;;19.00;98.20;;;;;;4978235;28;21096;-80
2021/09/12 01:45:41;;;;;;;1.50;0.97;;;19.00;98.20;;;;;;4983659;28;20644;-79
2021/09/12 01:48:08;;;;;;;1.50;0.90;;;19.00;98.20;;;;;;4961378;28;20493;-80
2021/09/12 01:50:35;;;;;;;1.50;0.90;;;19.00;98.20;;;;;;4971891;28;20668;-80
2021/09/12 01:53:01;;;;;;;1.50;0.90;;;19.00;98.20;;;;;;4967885;28;20847;-80
2021/09/12 01:55:28;;;;;;;1.60;1.07;;;19.00;98.20;;;;;;4972655;28;20497;-80
2021/09/12 01:57:55;;;;;;;1.50;0.90;;;19.00;98.20;;;;;;4969922;28;20504;-80
2021/09/12 02:00:23;;;;;;;1.50;0.90;;;18.90;98.20;;;;;;4978048;28;20570;-80
2021/09/12 02:02:50;;;;;;;1.53;0.90;;;18.90;98.20;;;;;;4959219;28;20490;-80
2021/09/12 02:05:16;;;;;;;1.50;1.00;;;18.90;98.20;;;;;;4978689;28;21190;-79
2021/09/12 02:07:43;;;;;;;1.50;1.00;;;18.80;98.20;;;;;;4967303;28;20492;-79
2021/09/12 02:10:11;;;;;;;1.53;1.00;;;18.80;98.20;;;;;;4980949;28;20474;-80
2021/09/12 02:12:38;;;;;;;1.53;1.00;;;18.80;98.20;;;;;;4965765;28;20470;-80
2021/09/12 02:15:05;;;;;;;1.50;0.90;;;18.80;98.20;;;;;;4976688;28;20482;-81
2021/09/12 02:17:33;;;;;;;1.50;0.90;;;18.80;98.20;;;;;;4962629;28;20492;-79
2021/09/12 02:20:00;;;;;;;1.50;0.90;;;18.80;98.20;;;;;;4971357;28;20463;-79
2021/09/12 02:22:27;;;;;;;1.50;1.00;;;18.80;98.20;;;;;;4963487;28;20484;-80
2021/09/12 02:24:53;;;;;;;1.50;0.90;;;18.80;98.20;;;;;;4973814;28;20490;-81
2021/09/12 02:27:20;;;;;;;1.53;1.00;;;18.80;98.20;;;;;;4961094;28;20482;-81
2021/09/12 02:29:47;;;;;;;1.53;1.00;;;18.80;98.20;;;;;;4973470;28;20466;-83
2021/09/12 02:32:14;;;;;;;1.50;0.90;;;18.80;98.20;;;;;;4963015;28;20546;-81
2021/09/12 02:34:42;;;;;;;1.53;1.00;;;18.80;98.20;;;;;;4973897;28;20501;-80
2021/09/12 02:37:09;;;;;;;1.50;1.00;;;18.80;98.20;;;;;;4957207;28;20494;-80
2021/09/12 02:39:36;;;;;;;1.77;1.40;;;18.80;98.20;;;;;;4973489;28;20489;-81
2021/09/12 02:42:02;;;;;;;1.50;0.90;;;18.80;98.20;;;;;;4966076;28;20681;-81
2021/09/12 02:44:29;;;;;;;1.50;0.90;;;18.80;98.20;;;;;;4968744;28;20486;-80
2021/09/12 02:46:56;;;;;;;1.57;1.00;;;18.80;98.20;;;;;;4958337;28;20466;-81
2021/09/12 02:49:23;;;;;;;1.53;1.00;;;18.80;98.20;;;;;;4969935;28;20470;-81
2021/09/12 02:51:51;;;;;;;1.53;0.97;;;18.80;98.20;;;;;;4966708;28;20557;-81
2021/09/12 02:54:17;;;;;;;1.50;1.00;;;18.80;98.20;;;;;;4971730;28;20506;-82
2021/09/12 02:56:44;;;;;;;1.50;1.00;;;18.80;98.20;;;;;;4956023;28;20491;-83
2021/09/12 02:59:11;;;;;;;1.50;1.00;;;18.80;98.20;;;;;;4958637;28;20775;-81
2021/09/12 03:01:38;;;;;;;1.50;0.90;;;18.80;98.20;;;;;;4963383;28;20491;-80
2021/09/12 03:04:05;;;;;;;1.50;1.00;;;18.90;98.20;;;;;;4972915;28;20512;-81
2021/09/12 03:06:31;;;;;;;1.50;0.90;;;18.80;98.20;;;;;;4959775;28;20504;-81
2021/09/12 03:09:00;;;;;;;1.50;0.97;;;18.80;98.20;;;;;;4968231;28;20478;-82
2021/09/12 03:11:26;;;;;;;1.57;1.00;;;18.80;98.20;;;;;;4963343;28;20852;-81
2021/09/12 03:13:53;;;;;;;1.50;0.90;;;18.80;98.20;;;;;;4966742;28;20483;-82
2021/09/12 03:16:20;;;;;;;1.50;1.00;;;18.80;98.20;;;;;;4962063;28;21039;-82
2021/09/12 03:18:47;;;;;;;1.50;0.97;;;18.80;98.20;;;;;;4972212;28;20465;-81
2021/09/12 03:21:14;;;;;;;1.50;0.90;;;18.80;98.20;;;;;;4951643;28;20485;-80
2021/09/12 03:23:41;;;;;;;1.50;1.00;;;18.80;98.20;;;;;;4972863;28;20475;-81
2021/09/12 03:26:09;;;;;;;1.50;0.90;;;18.80;98.20;;;;;;4957877;28;20491;-78
2021/09/12 03:28:36;;;;;;;1.53;1.00;;;18.80;98.20;;;;;;4963651;28;20477;-78
2021/09/12 03:31:04;;;;;;;1.50;0.90;;;18.80;98.20;;;;;;4951431;28;20801;-78
2021/09/12 03:33:30;;;;;;;1.57;1.00;;;18.80;98.20;;;;;;4965822;28;20469;-78
2021/09/12 03:35:58;;;;;;;1.50;0.90;;;18.80;98.20;;;;;;4951315;28;20481;-79
2021/09/12 03:38:24;;;;;;;1.50;0.90;;;18.80;98.20;;;;;;4971599;28;20462;-78
2021/09/12 03:40:51;;;;;;;1.50;1.00;;;18.70;98.20;;;;;;4956543;28;20466;-79
2021/09/12 03:43:20;;;;;;;1.53;0.90;;;18.70;98.20;;;;;;4966594;28;20477;-79
2021/09/12 03:45:46;;;;;;;1.50;0.90;;;18.60;98.20;;;;;;4969901;28;20973;-79
2021/09/12 03:48:13;;;;;;;1.57;1.00;;;18.60;98.20;;;;;;4966590;28;20474;-79
2021/09/12 03:50:40;;;;;;;1.53;1.00;;;18.50;98.20;;;;;;4973962;28;20509;-79
2021/09/12 03:53:07;;;;;;;1.50;0.90;;;18.50;98.20;;;;;;4962440;28;20493;-79
2021/09/12 03:55:33;;;;;;;1.60;1.10;;;18.50;98.20;;;;;;4968353;28;20499;-79
2021/09/12 03:58:00;;;;;;;1.50;0.90;;;18.40;98.20;;;;;;4961309;28;20516;-79
2021/09/12 04:00:28;;;;;;;1.53;1.00;;;18.40;98.20;;;;;;4975910;28;20462;-80
2021/09/12 04:02:55;;;;;;;1.50;0.90;;;18.30;98.20;;;;;;4959276;28;20505;-79
2021/09/12 04:05:21;;;;;;;1.60;1.00;;;18.30;98.20;;;;;;4970316;28;20544;-79
2021/09/12 04:07:48;;;;;;;1.53;1.00;;;18.20;98.20;;;;;;4960109;28;20493;-80
2021/09/12 04:10:15;;;;;;;1.50;1.00;;;18.10;98.20;;;;;;4964959;28;20553;-78
2021/09/12 04:12:42;;;;;;;1.57;1.00;;;18.10;98.20;;;;;;4964660;28;20474;-78
2021/09/12 04:15:09;;;;;;;1.53;1.00;;;18.00;98.20;;;;;;4969451;28;20486;-78
2021/09/12 04:17:37;;;;;;;1.60;1.10;;;18.00;98.20;;;;;;4962175;28;20482;-79
2021/09/12 04:20:04;;;;;;;1.53;1.00;;;17.90;98.20;;;;;;4965590;28;21117;-78
2021/09/12 04:22:31;;;;;;;1.53;1.00;;;17.90;98.20;;;;;;4963432;28;20485;-79
2021/09/12 04:24:58;;;;;;;1.53;1.00;;;17.90;98.20;;;;;;4973925;28;20488;-78
2021/09/12 04:27:25;;;;;;;1.57;1.00;;;17.80;98.20;;;;;;4949509;28;20939;-79
2021/09/12 04:29:51;;;;;;;1.50;1.00;;;17.80;98.20;;;;;;4965949;28;20469;-79
2021/09/12 04:32:18;;;;;;;1.60;1.10;;;17.80;98.20;;;;;;4951780;28;20492;-79
2021/09/12 04:34:47;;;;;;;1.57;1.00;;;17.70;98.20;;;;;;4967434;28;20618;-78
2021/09/12 04:37:14;;;;;;;1.53;1.00;;;17.70;98.20;;;;;;4952794;28;20485;-79
2021/09/12 04:39:41;;;;;;;1.53;1.00;;;17.70;98.20;;;;;;4966452;28;20919;-78
2021/09/12 04:42:08;;;;;;;1.50;0.97;;;17.70;98.20;;;;;;4957076;28;20486;-78
2021/09/12 04:44:35;;;;;;;1.50;1.00;;;17.70;98.20;;;;;;4968510;28;20485;-78
2021/09/12 04:47:02;;;;;;;1.50;1.00;;;17.60;98.20;;;;;;4960772;28;20486;-79
2021/09/12 04:49:29;;;;;;;1.50;0.90;;;17.60;98.20;;;;;;4966232;28;20463;-78
2021/09/12 04:51:57;;;;;;;1.60;1.00;;;17.60;98.20;;;;;;4956497;28;20478;-78
2021/09/12 04:54:24;;;;;;;1.57;1.00;;;17.60;98.20;;;;;;4962568;28;20486;-79
2021/09/12 04:56:51;;;;;;;1.53;1.00;;;17.60;98.20;;;;;;4960565;28;20496;-77
2021/09/12 04:59:18;;;;;;;1.53;1.00;;;17.60;98.20;;;;;;4965333;28;20462;-78
2021/09/12 05:01:44;;;;;;;1.50;1.00;;;17.60;98.20;;;;;;4957944;28;20481;-78
2021/09/12 05:04:11;;;;;;;1.50;0.90;;;17.50;98.20;;;;;;4962716;28;20829;-78
2021/09/12 05:06:38;;;;;;;1.60;1.00;;;17.50;98.20;;;;;;4955601;28;20482;-80
2021/09/12 05:09:06;;;;;;;1.60;1.00;;;17.40;98.20;;;;;;4966882;28;20465;-78
2021/09/12 05:11:33;;;;;;;1.50;1.00;;;17.40;98.20;;;;;;4959876;28;20473;-78
2021/09/12 05:14:00;;;;;;;1.50;0.93;;;17.40;98.20;;;;;;4972152;28;20481;-77
2021/09/12 05:16:26;;;;;;;1.60;1.10;;;17.40;98.20;;;;;;4963397;28;20478;-78
2021/09/12 05:18:53;;;;;;;1.53;1.00;;;17.40;98.20;;;;;;4969719;28;20465;-79
2021/09/12 05:21:23;;;;;;;1.50;0.90;;;17.40;98.20;;;;;;4959348;28;20482;-79
2021/09/12 05:23:49;;;;;;;1.50;1.00;;;17.40;98.20;;;;;;4973270;28;20521;-79
2021/09/12 05:26:17;;;;;;;1.60;1.00;;;17.40;98.20;;;;;;4955590;28;20546;-79
2021/09/12 05:28:44;;;;;;;1.50;1.00;;;17.40;98.20;;;;;;4962345;28;20851;-78
2021/09/12 05:31:11;;;;;;;1.60;0.93;;;17.40;98.20;;;;;;4958058;28;20484;-78
2021/09/12 05:33:38;;;;;;;1.57;1.00;;;17.40;98.20;;;;;;4964883;28;20821;-77
2021/09/12 05:36:05;;;;;;;1.57;1.00;;;17.40;98.20;;;;;;4958963;28;20485;-78
2021/09/12 05:38:32;;;;;;;1.50;1.00;;;17.40;98.20;;;;;;4955513;28;20467;-78
2021/09/12 05:40:59;;;;;;;1.50;0.90;;;17.40;98.20;;;;;;4948941;28;20475;-78
2021/09/12 05:43:27;;;;;;;1.50;0.90;;;17.40;98.20;;;;;;4962253;28;20837;-78
2021/09/12 05:45:54;;;;;;;1.50;1.00;;;17.40;98.20;;;;;;4956312;28;21105;-78
2021/09/12 05:48:20;;;;;;;1.50;0.97;;;17.40;98.20;;;;;;4969508;28;20467;-78
2021/09/12 05:50:50;;;;;;;1.50;0.90;;;17.40;98.20;;;;;;4967808;28;20461;-78
2021/09/12 05:53:20;;;;;;;1.60;1.00;;;17.40;98.20;;;;;;4972392;28;20483;-78
2021/09/12 05:55:47;;;;;;;1.60;1.10;;;17.40;98.20;;;;;;4967954;28;20809;-78
2021/09/12 05:58:14;;;;;;;1.50;0.90;;;17.40;98.20;;;;;;4973080;28;20479;-77
2021/09/12 06:00:43;;;;;;;1.50;0.90;;;17.50;98.20;;;;;;4958126;28;20467;-78
2021/09/12 06:03:10;;;;;;;1.50;1.00;;;17.50;98.20;;;;;;4963230;28;20613;-78
2021/09/12 06:05:36;;;;;;;1.50;1.00;;;17.50;98.20;;;;;;4964804;28;20500;-78
2021/09/12 06:08:04;;;;;;;1.50;1.00;;;17.50;98.20;;;;;;4963608;28;20485;-78
2021/09/12 06:10:31;;;;;;;1.50;1.00;;;17.50;98.20;;;;;;4976043;28;20753;-78
2021/09/12 06:12:57;;;;;;;1.50;0.90;;;17.50;98.20;;;;;;4952944;28;20483;-78
2021/09/12 06:15:24;;;;;;;1.50;1.00;;;17.60;98.20;;;;;;4968099;28;20486;-79
2021/09/12 06:17:52;;;;;;;1.50;0.93;;;17.60;98.20;;;;;;4958574;28;20493;-78
2021/09/12 06:20:19;;;;;;;1.50;1.00;;;17.60;98.20;;;;;;4968538;28;20809;-78
2021/09/12 06:22:47;;;;;;;1.53;1.00;;;17.60;98.20;;;;;;4961534;28;20485;-78
2021/09/12 06:25:15;;;;;;;1.53;1.00;;;17.70;98.20;;;;;;4975779;28;20517;-78
2021/09/12 06:27:42;;;;;;;1.50;1.00;;;17.70;98.20;;;;;;4957344;28;20827;-78
2021/09/12 06:30:11;;;;;;;1.50;1.00;;;17.80;98.20;;;;;;4970287;28;20466;-78
2021/09/12 06:32:38;;;;;;;1.50;0.90;;;17.80;98.20;;;;;;4946035;28;20483;-79
2021/09/12 06:35:07;;;;;;;1.50;0.93;;;17.80;98.20;;;;;;4970120;28;20642;-78
2021/09/12 06:37:34;;;;;;;1.70;1.30;;;17.90;98.20;;;;;;4954602;28;20537;-78
2021/09/12 06:40:01;;;;;;;1.50;0.90;;;17.90;98.20;;;;;;4966865;28;20987;-78
2021/09/12 06:42:27;;;;;;;1.50;0.90;;;17.90;98.20;;;;;;4959437;28;20478;-78
2021/09/12 06:44:54;;;;;;;1.60;1.10;;;18.00;98.20;;;;;;4966832;28;20493;-77
2021/09/12 06:47:21;;;;;;;1.50;1.00;;;18.00;98.20;;;;;;4955305;28;20483;-79
2021/09/12 06:49:48;;;;;;;1.50;1.00;;;18.10;98.20;;;;;;4970068;28;21230;-80
2021/09/12 06:52:16;;;;;;;1.50;0.90;;;18.10;98.20;;;;;;4958467;28;20883;-79
2021/09/12 06:54:43;;;;;;;1.50;0.90;;;18.20;98.20;;;;;;4972865;28;20502;-80
2021/09/12 06:57:09;;;;;;;1.53;0.90;;;18.30;98.20;;;;;;4964442;28;20496;-80
2021/09/12 06:59:36;;;;;;;1.50;0.90;;;18.40;98.20;;;;;;4973061;28;20954;-79
2021/09/12 07:02:04;;;;;;;1.53;0.90;;;18.50;98.20;;;;;;4962848;28;21060;-80
2021/09/12 07:04:31;;;;;;;1.53;1.00;;;18.50;98.20;;;;;;4963489;28;20905;-78
2021/09/12 07:06:57;;;;;;;1.50;1.00;;;18.60;98.20;;;;;;4959452;28;20489;-79
2021/09/12 07:09:25;;;;;;;1.53;1.00;;;18.60;98.20;;;;;;4967178;28;20765;-78
2021/09/12 07:11:52;;;;;;;1.60;1.00;;;18.70;98.20;;;;;;4957023;28;20817;-78
2021/09/12 07:14:19;;;;;;;1.53;1.00;;;18.70;98.20;;;;;;4970998;28;20490;-78
2021/09/12 07:16:46;;;;;;;1.57;1.00;;;18.80;98.20;;;;;;4960187;28;20481;-78
2021/09/12 07:19:12;;;;;;;1.50;0.93;;;18.80;98.20;;;;;;4960537;28;20463;-78
2021/09/12 07:21:39;;;;;;;1.53;0.97;;;18.80;98.20;;;;;;4953573;28;20497;-78
2021/09/12 07:24:06;;;;;;;1.53;0.90;;;18.80;98.20;;;;;;4973438;28;20498;-78
2021/09/12 07:26:34;;;;;;;1.50;0.90;;;18.90;98.20;;;;;;4959994;28;20855;-78
2021/09/12 07:29:01;;;;;;;1.50;1.00;;;18.90;98.20;;;;;;4969976;28;20474;-78
2021/09/12 07:31:27;;;;;;;1.50;1.00;;;18.90;98.20;;;;;;4959595;28;20941;-78
2021/09/12 07:33:54;;;;;;;1.53;0.90;;;19.00;98.20;;;;;;4966805;28;20490;-78
2021/09/12 07:36:21;;;;;;;1.53;1.00;;;19.10;98.20;;;;;;4956417;28;20484;-78
2021/09/12 07:38:47;;;;;;;1.53;1.00;;;19.20;98.20;;;;;;4964779;28;21134;-78
2021/09/12 07:41:14;;;;;;;1.57;0.90;;;19.30;98.20;;;;;;4957502;28;20488;-78
2021/09/12 07:43:42;;;;;;;1.50;0.90;;;19.30;98.20;;;;;;4970008;28;20467;-79
2021/09/12 07:46:09;;;;;;;1.50;0.90;;;19.40;98.20;;;;;;4962246;28;20492;-78
2021/09/12 07:48:36;;;;;;;1.53;1.00;;;19.50;98.20;;;;;;4971735;28;20459;-80
2021/09/12 07:51:03;;;;;;;1.50;0.90;;;19.60;98.20;;;;;;4958814;28;20469;-80
2021/09/12 07:53:30;;;;;;;1.50;0.90;;;19.80;98.20;;;;;;4965856;28;20486;-80
2021/09/12 07:55:57;;;;;;;1.53;1.00;;;20.00;98.20;;;;;;4952550;28;20897;-80
2021/09/12 07:58:23;;;;;;;1.50;0.90;;;20.10;98.20;;;;;;4960326;28;20466;-80
2021/09/12 08:00:52;;;;;;;1.50;0.90;;;20.10;98.20;;;;;;4959895;28;20525;-81
2021/09/12 08:03:19;;;;;;;1.57;0.93;;;20.20;98.20;;;;;;4960906;28;20494;-80
2021/09/12 08:05:45;;;;;;;1.50;1.00;;;20.20;98.20;;;;;;4962347;28;20486;-80
2021/09/12 08:08:12;;;;;;;1.50;0.90;;;20.20;98.20;;;;;;4932121;28;21040;-80
2021/09/12 08:10:39;;;;;;;1.50;1.00;;;20.30;98.20;;;;;;4973236;28;20751;-80
2021/09/12 08:13:06;;;;;;;1.53;0.90;;;20.40;98.20;;;;;;4964207;28;21023;-80
2021/09/12 08:15:33;;;;;;;1.53;0.90;;;20.50;98.20;;;;;;4970230;28;20874;-80
2021/09/12 08:18:01;;;;;;;1.53;0.90;;;20.60;98.20;;;;;;4962142;28;20492;-78
2021/09/12 08:20:27;;;;;;;1.57;1.00;;;20.80;98.20;;;;;;4973888;28;21065;-80
2021/09/12 08:22:54;;;;;;;1.50;0.90;;;21.00;98.00;;;;;;4958415;28;20898;-80
2021/09/12 08:25:21;;;;;;;1.50;1.00;;;21.20;97.00;;;;;;4968000;28;20514;-80
2021/09/12 08:27:48;;;;;;;1.50;0.90;;;21.40;95.00;;;;;;4954807;28;20482;-80
2021/09/12 08:30:14;;;;;;;2.37;1.83;;;21.50;94.10;;;;;;4969411;28;20459;-80
2021/09/12 08:32:41;;;;;;;1.50;0.90;;;21.50;94.70;;;;;;4963100;28;20501;-80
2021/09/12 08:35:10;;;;;;;1.50;0.90;;;21.50;94.60;;;;;;4971094;28;20868;-80
2021/09/12 08:37:37;;;;;;;1.50;0.90;;;21.50;93.70;;;;;;4962428;28;20493;-80
2021/09/12 08:40:06;;;;;;;1.50;0.90;;;21.40;92.00;;;;;;4962268;28;20478;-80
2021/09/12 08:42:33;;;;;;;1.50;0.90;;;21.30;92.80;;;;;;4956360;28;21004;-79
2021/09/12 08:45:00;;;;;;;1.50;0.90;;;21.20;92.40;;;;;;4970828;28;20480;-80
2021/09/12 08:47:28;;;;;;;1.50;0.90;;;21.20;93.10;;;;;;4968842;28;20490;-80
2021/09/12 08:49:54;;;;;;;1.50;0.90;;;21.20;92.90;;;;;;4961661;28;20576;-81
2021/09/12 08:52:22;;;;;;;1.50;0.93;;;21.30;92.90;;;;;;4957201;28;20485;-80
2021/09/12 08:54:49;;;;;;;3.03;2.60;;;21.40;93.50;;;;;;4965184;28;20498;-80
2021/09/12 08:57:16;;;;;;;1.50;0.90;;;21.70;92.10;;;;;;4953115;28;20902;-80
2021/09/12 08:59:49;;;;;;;1.53;0.90;;;22.00;90.80;;;;;;4958346;28;20463;-81
2021/09/12 09:02:17;;;;;;;1.53;0.90;;;22.20;90.00;;;;;;4956381;28;21068;-78
2021/09/12 09:04:43;;;;;;;1.53;0.90;;;22.40;90.10;;;;;;4966262;28;20545;-79
2021/09/12 09:07:11;;;;;;;1.57;0.90;;;22.70;89.50;;;;;;4958274;28;20683;-79
2021/09/12 09:09:46;;;;;;;1.50;0.90;;;22.80;88.40;;;;;;4969753;28;20546;-80
2021/09/12 09:12:23;;;;;;;1.50;0.90;;;22.90;88.40;;;;;;4958119;28;20486;-79
2021/09/12 09:15:10;;;;;;;1.50;0.90;;;23.00;87.90;;;;;;4961737;28;20485;-81
2021/09/12 09:17:39;;;;;;;1.50;0.90;;;22.80;87.20;;;;;;4960594;28;20493;-80
2021/09/12 09:20:08;;;;;;;1.50;0.90;;;22.70;87.90;;;;;;4975225;28;20464;-81
2021/09/12 09:22:36;;;;;;;1.53;0.90;;;22.70;88.30;;;;;;4956269;28;20495;-79
2021/09/12 09:25:10;;;;;;;1.50;0.90;;;22.70;87.80;;;;;;4961340;28;20521;-79
2021/09/12 09:27:58;;;;;;;1.50;0.90;;;22.70;88.00;;;;;;4962293;28;20488;-79
2021/09/12 09:30:25;;;;;;;1.50;0.90;;;22.70;87.10;;;;;;4963175;28;20465;-79
2021/09/12 09:32:52;;;;;;;1.50;0.90;;;22.60;86.60;;;;;;4954817;28;20486;-81
2021/09/12 09:35:23;;;;;;;1.50;0.90;;;22.60;87.60;;;;;;4973883;28;20502;-80
2021/09/12 09:37:52;;;;;;;1.50;0.90;;;22.50;87.20;;;;;;4961890;28;20860;-82
2021/09/12 09:40:21;;;;;;;1.50;0.90;;;22.50;88.00;;;;;;4973510;28;21028;-78
2021/09/12 09:42:48;;;;;;;1.50;0.90;;;22.50;86.80;;;;;;4964917;28;20488;-78
2021/09/12 09:45:16;;;;;;;1.50;0.90;;;22.60;87.40;;;;;;4976788;28;21255;-79
2021/09/12 09:47:45;;;;;;;1.50;0.90;;;22.70;86.70;;;;;;4964142;28;20538;-78
2021/09/12 09:50:13;;;;;;;1.50;0.90;;;22.80;84.80;;;;;;4969507;28;20465;-79
2021/09/12 09:52:41;;;;;;;1.50;0.90;;;23.00;86.40;;;;;;4952387;28;20837;-78
2021/09/12 09:55:10;;;;;;;1.50;0.90;;;23.10;85.70;;;;;;4960648;28;20597;-78
2021/09/12 09:57:38;;;;;;;1.50;0.90;;;23.30;85.80;;;;;;4962802;28;20918;-81
2021/09/12 10:00:06;;;;;;;1.50;0.90;;;23.40;85.00;;;;;;4967685;28;20470;-79
2021/09/12 10:02:34;;;;;;;1.50;0.90;;;23.40;85.50;;;;;;4957039;28;20482;-79
2021/09/12 10:05:03;;;;;;;1.50;0.90;;;23.50;85.80;;;;;;4965520;28;20545;-79
2021/09/12 10:07:30;;;;;;;1.50;0.90;;;23.60;83.70;;;;;;4954487;28;20497;-80
2021/09/12 10:09:57;;;;;;;1.50;0.90;;;23.60;84.50;;;;;;4973856;28;20543;-79
2021/09/12 10:12:25;;;;;;;1.50;0.90;;;23.70;82.90;;;;;;4962099;28;20493;-78
2021/09/12 10:14:57;;;;;;;1.50;0.90;;;23.60;83.80;;;;;;4966895;28;20482;-79
2021/09/12 10:17:28;;;;;;;1.53;0.90;;;23.50;85.50;;;;;;4954491;28;20482;-78
2021/09/12 10:20:07;;;;;;;1.50;0.90;;;23.50;84.20;;;;;;4974799;28;20466;-79
2021/09/12 10:22:49;;;;;;;1.50;0.90;;;23.50;83.80;;;;;;4951515;28;20485;-79
2021/09/12 10:25:16;;;;;;;1.50;0.90;;;23.50;84.10;;;;;;4962258;28;20816;-80
2021/09/12 10:27:44;;;;;;;1.50;0.90;;;23.60;84.60;;;;;;4960325;28;21056;-80
2021/09/12 10:30:29;;;;;;;1.50;0.87;;;23.70;83.50;;;;;;4969757;28;20549;-80
2021/09/12 10:33:19;;;;;;;1.50;0.90;;;23.70;83.40;;;;;;4958067;28;20588;-80
2021/09/12 10:35:52;;;;;;;1.50;0.90;;;23.80;82.60;;;;;;4964276;28;20735;-81
2021/09/12 10:38:31;;;;;;;1.53;0.90;;;23.80;82.60;;;;;;4916930;29;20483;-79
2021/09/12 10:41:18;;;;;;;1.50;0.90;;;23.80;81.20;;;;;;4942458;28;20478;-80
2021/09/12 10:43:47;;;;;;;1.50;0.90;;;23.80;83.70;;;;;;4969690;28;20461;-81
2021/09/12 10:46:23;;;;;;;1.50;0.90;;;23.90;82.30;;;;;;4960880;28;21260;-80
2021/09/12 10:49:10;;;;;;;1.50;0.90;;;23.90;83.20;;;;;;4961308;28;21012;-80
2021/09/12 10:51:42;;;;;;;1.50;0.90;;;24.00;81.00;;;;;;4959746;28;20481;-77
2021/09/12 10:54:09;;;;;;;1.50;0.90;;;24.10;80.70;;;;;;4964973;28;20562;-78
2021/09/12 10:56:39;;;;;;;1.50;0.90;;;24.20;79.40;;;;;;4948165;28;20488;-80
2021/09/12 10:59:10;;;;;;;1.50;0.90;;;24.30;80.10;;;;;;4969896;28;20824;-79
2021/09/12 11:01:42;;;;;;;1.50;0.83;;;24.40;79.80;;;;;;4955209;28;20482;-80
2021/09/12 11:04:09;;;;;;;1.50;0.90;;;24.50;78.90;;;;;;4969515;28;20482;-80
2021/09/12 11:06:38;;;;;;;1.50;0.90;;;24.60;78.80;;;;;;4949102;28;20906;-80
2021/09/12 11:09:06;;;;;;;1.50;0.90;;;24.60;78.70;;;;;;4971039;28;20493;-82
2021/09/12 11:11:33;;;;;;;1.50;0.87;;;24.60;78.80;;;;;;4962507;28;20482;-80
2021/09/12 11:14:00;;;;;;;1.50;0.90;;;24.70;78.60;;;;;;4958657;28;20490;-81
2021/09/12 11:16:28;;;;;;;1.50;0.90;;;24.70;78.70;;;;;;4963064;28;20488;-81
2021/09/12 11:18:59;;;;;;;1.50;0.90;;;24.70;78.80;;;;;;4971189;28;20461;-81
2021/09/12 11:21:32;;;;;;;1.50;0.90;;;24.50;77.80;;;;;;4962813;28;20505;-80
2021/09/12 11:24:01;;;;;;;1.50;0.90;;;24.30;78.90;;;;;;4973268;28;20486;-79
2021/09/12 11:26:29;;;;;;;1.50;0.90;;;24.10;79.80;;;;;;4958186;28;20953;-79
2021/09/12 11:29:04;;;;;;;1.50;0.90;;;24.10;80.00;;;;;;4961391;28;20493;-79
2021/09/12 11:31:31;;;;;;;1.50;0.90;;;24.10;79.70;;;;;;4955775;28;20481;-79
2021/09/12 11:34:00;;;;;;;1.50;0.90;;;24.20;80.00;;;;;;4971719;28;20507;-81
2021/09/12 11:36:27;;;;;;;1.50;0.90;;;24.20;81.00;;;;;;4960605;28;20485;-80
2021/09/12 11:38:56;;;;;;;1.50;1.00;;;24.40;79.10;;;;;;4968832;28;20636;-81
2021/09/12 11:41:23;;;;;;;1.50;0.90;;;24.50;78.80;;;;;;4961737;28;20850;-79
2021/09/12 11:43:55;;;;;;;1.50;0.90;;;24.70;77.20;;;;;;4969817;28;20556;-77
2021/09/12 11:46:22;;;;;;;1.50;0.90;;;24.80;78.70;;;;;;4956634;28;20548;-81
2021/09/12 11:48:56;;;;;;;1.50;0.90;;;24.80;77.60;;;;;;4968279;28;20861;-80
2021/09/12 11:51:29;;;;;;;1.50;0.90;;;24.80;77.70;;;;;;4957784;28;20491;-81
2021/09/12 11:54:10;;;;;;;1.50;0.90;;;24.90;78.50;;;;;;4977166;28;20498;-80
2021/09/12 11:56:38;;;;;;;1.50;0.90;;;25.10;77.30;;;;;;4958435;28;20485;-81
2021/09/12 11:59:08;;;;;;;1.50;0.80;;;25.30;79.20;;;;;;4959602;28;20459;-80
2021/09/12 12:01:36;;;;;;;1.50;0.87;;;25.50;78.50;;;;;;4958284;28;20494;-80
2021/09/12 12:04:04;;;;;;;1.50;0.90;;;25.80;77.70;;;;;;4969798;28;20485;-78
2021/09/12 12:06:33;;;;;;;1.50;0.90;;;25.90;75.30;;;;;;4951893;28;20492;-80
2021/09/12 12:09:09;;;;;;;1.50;0.90;;;25.90;75.10;;;;;;4970046;28;20490;-81
2021/09/12 12:11:39;;;;;;;1.50;0.90;;;25.90;76.60;;;;;;4951726;28;20580;-81
2021/09/12 12:14:08;;;;;;;1.50;0.90;;;26.00;75.00;;;;;;4966727;28;20524;-80
2021/09/12 12:16:42;;;;;;;1.50;0.90;;;26.10;76.60;;;;;;4962521;28;20487;-79
2021/09/12 12:19:11;;;;;;;1.50;0.83;;;26.20;76.30;;;;;;4967724;28;20462;-82
2021/09/12 12:21:40;;;;;;;1.50;0.90;;;26.30;76.50;;;;;;4958975;28;20489;-81
2021/09/12 12:24:18;;;;;;;1.50;0.90;;;26.30;75.30;;;;;;4975275;28;20488;-82
2021/09/12 12:26:48;;;;;;;1.50;0.80;;;26.20;75.20;;;;;;4959080;28;20584;-82
2021/09/12 12:29:25;;;;;;;1.50;0.90;;;25.90;75.90;;;;;;4961546;28;20485;-82
2021/09/12 12:31:53;;;;;;;1.50;0.90;;;25.70;76.10;;;;;;4959675;28;20494;-82
2021/09/12 12:34:45;;;;;;;1.50;0.90;;;25.70;76.30;;;;;;4969129;28;20494;-81
2021/09/12 12:37:14;;;;;;;1.50;0.80;;;25.90;76.90;;;;;;4959964;28;20744;-79
2021/09/12 12:39:41;;;;;;;1.50;0.90;;;25.90;75.00;;;;;;4961416;28;20455;-80
2021/09/12 12:42:09;;;;;;;1.50;0.87;;;25.90;74.30;;;;;;4949840;28;21177;-81
2021/09/12 12:44:42;;;;;;;1.50;0.90;;;25.80;74.00;;;;;;4963305;28;20528;-80
2021/09/12 12:47:09;;;;;;;1.50;0.90;;;25.60;73.90;;;;;;4962758;28;20493;-79
2021/09/12 12:49:36;;;;;;;1.50;0.90;;;25.60;74.50;;;;;;4963723;28;20526;-80
2021/09/12 12:52:15;;;;;;;1.50;0.90;;;25.50;76.40;;;;;;4944372;28;20501;-81